Detalii statie AGROKAISER STANESTI [0000198D]

Toti senzorii

Date Temperatura solului [C]Precipitatii [mm]Voltaj baterie [mV]Leaf Wetness [Min]HC Air temperature [C]HC Relative humidity [%]Punctul de roua [C]
medieminmaxsumaultimatimpmedieminmaxmediemediemin
2020-01-21 22:00:00 0 6678 -1.12 -1.32 -0.84 100 -0.9 -1.2
2020-01-21 23:00:00 0 6668 -1.53 -1.8 -1.4 100 -1.4 -1.7
2020-01-22 00:00:00 0 6668 -2.57 -3.09 -2.06 100 -2.4 -2.9
2020-01-22 01:00:00 0 6660 -3.12 -3.52 -2.89 100 -2.9 -3.4
2020-01-22 02:00:00 0 6650 -3.48 -3.64 -3.35 100 -3.3 -3.5
2020-01-22 03:00:00 0 6650 -3.61 -3.71 -3.54 100 -3.4 -3.6
2020-01-22 04:00:00 0 6640 -3.88 -4.14 -3.68 100 -3.7 -4
2020-01-22 05:00:00 0 6640 -4.07 -4.13 -4.03 100 -3.9 -4
2020-01-22 06:00:00 0 6630 -4.15 -4.27 -4.02 100 -4 -4.1
2020-01-22 07:00:00 0 6640 -4.28 -4.42 -4.13 100 -4.1 -4.3
2020-01-22 08:00:00 0 6620 -4.17 -4.24 -4.05 100 -4 -4.1
2020-01-22 09:00:00 0 6786 -3.15 -3.96 -2.25 100 -3 -3.8
2020-01-22 10:00:00 0 7000 -0.95 -2.04 0.16 100 -0.8 -1.9
2020-01-22 11:00:00 0 7294 1.42 0.27 2.36 100 1.3 0.2
2020-01-22 12:00:00 0 7294 3.23 2.6 4.04 100 3.2 2.6
2020-01-22 13:00:00 0 7294 5.04 4.06 5.82 90.64 3.4 3.1
2020-01-22 14:00:00 0 7294 5.58 5.22 6.2 85.64 3.2 3.1
2020-01-22 15:00:00 0 7284 6.63 6.28 6.84 78.92 3 2.4
2020-01-22 16:00:00 0 7216 7.24 6.92 7.44 76.34 3.2 3
2020-01-22 17:00:00 0 7000 6.19 4.87 7.12 78.69 2.6 1.8
2020-01-22 18:00:00 0 6816 3.78 2.46 4.52 84.71 1.3 0.6
2020-01-22 19:00:00 0 6708 1.89 0.98 2.47 91.06 0.4 0
2020-01-22 20:00:00 0 6668 1.88 0.95 2.88 90.05 0.2 0
2020-01-22 21:00:00 0 6660 1.5 0.56 2.55 87.55 -0.3 -0.6
2020-01-22 22:00:00 0 6660 2.36 1.75 3.08 79.79 -0.7 -1.4
2020-01-22 23:00:00 0 6650 2.04 1.79 2.33 76.39 -1.7 -2
2020-01-23 00:00:00 0 6650 1.36 0.47 2 76.73 -2.3 -2.4
2020-01-23 01:00:00 0 6630 -1.41 -2.76 0.24 92.52 -2.4 -3
2020-01-23 02:00:00 0 6640 -1.1 -2.01 -0.33 96.73 -1.4 -1.9
2020-01-23 03:00:00 0 6630 -1.06 -1.68 -0.4 98.45 -1.1 -1.5
2020-01-23 04:00:00 0 6620 -1.13 -2.2 -0.32 99.65 -1 -2.1
2020-01-23 05:00:00 0 6620 -0.86 -1.85 -0.28 100 -0.7 -1.7
2020-01-23 06:00:00 0 6620 -2.34 -2.65 -2.03 100 -2.2 -2.5
2020-01-23 07:00:00 0 6620 -4.01 -5.34 -2.53 100 -3.8 -5.2
2020-01-23 08:00:00 0 6600 -3.99 -5.15 -3.04 100 -3.8 -5
2020-01-23 09:00:00 0 6756 -2.08 -3.08 -0.47 100 -1.9 -2.9
2020-01-23 10:00:00 0 6894 1.21 -0.08 2.23 100 1.1 0
2020-01-23 11:00:00 0 7294 2.54 2.07 3.31 97.96 2.1 1.9
2020-01-23 12:00:00 0 7294 5.06 3.67 6.42 86.98 2.8 2.3
2020-01-23 13:00:00 0 7294 6.71 6.21 7.09 73.45 2.1 1.8
2020-01-23 14:00:00 0 7294 7.31 7.02 7.64 70.99 2.2 1.6
2020-01-23 15:00:00 0 7264 7.34 7.07 7.54 72.42 2.5 2.3
2020-01-23 16:00:00 0 7206 6.76 6.34 7.14 77.22 2.9 2.6
2020-01-23 17:00:00 0 7000 5.49 4.39 6.25 81.08 2.3 2
2020-01-23 18:00:00 0 6806 2.79 1.26 4.29 88.58 0.9 0.2
2020-01-23 19:00:00 0 6708 1.05 0.75 1.44 97.23 0.5 0.1